sensor_id;sensor_type;location;lat;lon;timestamp;pressure;altitude;pressure_sealevel;temperature;humidity
53940;BME280;39850;43.324;21.916;2022-10-22T00:27:42;999.0;;;10.7;68.0
53940;BME280;39850;43.324;21.916;2022-10-22T00:32:19;999.0;;;10.7;68.0
53940;BME280;39850;43.324;21.916;2022-10-22T00:36:56;999.0;;;10.7;68.0
53940;BME280;39850;43.324;21.916;2022-10-22T00:41:33;999.0;;;10.7;68.0
53940;BME280;39850;43.324;21.916;2022-10-22T00:46:10;999.0;;;10.7;67.0
53940;BME280;39850;43.324;21.916;2022-10-22T00:51:04;999.0;;;10.7;67.0
53940;BME280;39850;43.324;21.916;2022-10-22T00:55:53;999.0;;;10.7;67.0
53940;BME280;39850;43.324;21.916;2022-10-22T01:00:31;999.0;;;10.7;67.0
53940;BME280;39850;43.324;21.916;2022-10-22T01:05:11;999.0;;;10.7;67.0
53940;BME280;39850;43.324;21.916;2022-10-22T01:10:45;999.0;;;10.7;67.0
53940;BME280;39850;43.324;21.916;2022-10-22T01:45:58;998.0;;;10.7;69.0
53940;BME280;39850;43.324;21.916;2022-10-22T01:52:13;998.0;;;10.7;69.0
53940;BME280;39850;43.324;21.916;2022-10-22T01:57:35;998.0;;;10.7;69.0
53940;BME280;39850;43.324;21.916;2022-10-22T02:02:59;998.0;;;10.7;69.0
53940;BME280;39850;43.324;21.916;2022-10-22T02:07:59;998.0;;;10.7;68.0
53940;BME280;39850;43.324;21.916;2022-10-22T02:12:47;998.0;;;10.7;68.0
53940;BME280;39850;43.324;21.916;2022-10-22T02:17:38;998.0;;;10.7;68.0
53940;BME280;39850;43.324;21.916;2022-10-22T02:22:15;998.0;;;10.7;68.0
53940;BME280;39850;43.324;21.916;2022-10-22T02:27:22;998.0;;;10.7;68.0
53940;BME280;39850;43.324;21.916;2022-10-22T02:32:19;998.0;;;10.7;68.0
53940;BME280;39850;43.324;21.916;2022-10-22T03:09:28;998.0;;;10.7;68.0
53940;BME280;39850;43.324;21.916;2022-10-22T03:14:04;998.0;;;10.7;68.0
53940;BME280;39850;43.324;21.916;2022-10-22T03:18:41;998.0;;;10.7;69.0
53940;BME280;39850;43.324;21.916;2022-10-22T03:23:20;998.0;;;10.7;69.0
53940;BME280;39850;43.324;21.916;2022-10-22T03:28:12;998.0;;;10.7;69.0
53940;BME280;39850;43.324;21.916;2022-10-22T03:32:50;998.0;;;10.7;69.0
53940;BME280;39850;43.324;21.916;2022-10-22T03:37:28;998.0;;;10.9;69.0
53940;BME280;39850;43.324;21.916;2022-10-22T03:42:08;998.0;;;10.9;69.0
53940;BME280;39850;43.324;21.916;2022-10-22T03:46:45;998.0;;;11.1;69.0
53940;BME280;39850;43.324;21.916;2022-10-22T03:51:26;998.0;;;11.1;69.0
53940;BME280;39850;43.324;21.916;2022-10-22T04:28:32;998.0;;;10.7;69.0
53940;BME280;39850;43.324;21.916;2022-10-22T04:33:09;998.0;;;10.7;69.0
53940;BME280;39850;43.324;21.916;2022-10-22T04:37:46;998.0;;;10.7;69.0
53940;BME280;39850;43.324;21.916;2022-10-22T04:42:23;998.0;;;10.7;69.0
53940;BME280;39850;43.324;21.916;2022-10-22T04:46:59;998.0;;;10.7;70.0
53940;BME280;39850;43.324;21.916;2022-10-22T04:51:36;998.0;;;10.7;70.0
53940;BME280;39850;43.324;21.916;2022-10-22T04:56:22;998.0;;;10.7;70.0
53940;BME280;39850;43.324;21.916;2022-10-22T05:00:59;998.0;;;10.7;70.0
53940;BME280;39850;43.324;21.916;2022-10-22T05:05:36;998.0;;;10.7;70.0
53940;BME280;39850;43.324;21.916;2022-10-22T05:10:13;998.0;;;10.7;70.0
53940;BME280;39850;43.324;21.916;2022-10-22T05:14:50;998.0;;;10.7;70.0
53940;BME280;39850;43.324;21.916;2022-10-22T05:47:18;998.0;;;11.8;69.0
53940;BME280;39850;43.324;21.916;2022-10-22T05:51:55;998.0;;;11.8;69.0
53940;BME280;39850;43.324;21.916;2022-10-22T05:56:35;998.0;;;11.7;69.0
53940;BME280;39850;43.324;21.916;2022-10-22T06:01:24;998.0;;;11.7;69.0
53940;BME280;39850;43.324;21.916;2022-10-22T06:06:33;998.0;;;11.8;69.0
53940;BME280;39850;43.324;21.916;2022-10-22T06:11:11;998.0;;;11.8;69.0
53940;BME280;39850;43.324;21.916;2022-10-22T06:15:48;998.0;;;11.9;70.0
53940;BME280;39850;43.324;21.916;2022-10-22T06:20:25;998.0;;;11.9;70.0
53940;BME280;39850;43.324;21.916;2022-10-22T06:25:07;998.0;;;11.9;70.0
53940;BME280;39850;43.324;21.916;2022-10-22T06:29:46;998.0;;;12.2;71.0
53940;BME280;39850;43.324;21.916;2022-10-22T06:34:24;998.0;;;12.2;71.0
53940;BME280;39850;43.324;21.916;2022-10-22T07:06:48;998.0;;;14.0;63.0
53940;BME280;39850;43.324;21.916;2022-10-22T07:11:43;998.0;;;14.0;63.0
53940;BME280;39850;43.324;21.916;2022-10-22T07:16:21;998.0;;;15.0;60.0
53940;BME280;39850;43.324;21.916;2022-10-22T07:21:00;998.0;;;15.0;60.0
53940;BME280;39850;43.324;21.916;2022-10-22T07:25:37;998.0;;;15.0;60.0
53940;BME280;39850;43.324;21.916;2022-10-22T07:30:14;998.0;;;16.1;56.0
53940;BME280;39850;43.324;21.916;2022-10-22T07:34:51;998.0;;;16.1;56.0
53940;BME280;39850;43.324;21.916;2022-10-22T07:39:28;998.0;;;16.2;56.0
53940;BME280;39850;43.324;21.916;2022-10-22T07:44:04;998.0;;;16.2;56.0
53940;BME280;39850;43.324;21.916;2022-10-22T07:48:41;999.0;;;16.3;55.0
53940;BME280;39850;43.324;21.916;2022-10-22T07:53:19;999.0;;;16.3;55.0
53940;BME280;39850;43.324;21.916;2022-10-22T08:30:15;998.0;;;16.0;53.0
53940;BME280;39850;43.324;21.916;2022-10-22T08:34:52;998.0;;;16.0;53.0
53940;BME280;39850;43.324;21.916;2022-10-22T08:39:29;998.0;;;16.6;52.0
53940;BME280;39850;43.324;21.916;2022-10-22T08:45:12;998.0;;;16.6;52.0
53940;BME280;39850;43.324;21.916;2022-10-22T08:49:55;998.0;;;17.2;50.0
53940;BME280;39850;43.324;21.916;2022-10-22T08:54:58;998.0;;;17.2;50.0
53940;BME280;39850;43.324;21.916;2022-10-22T09:00:08;998.0;;;17.2;50.0
53940;BME280;39850;43.324;21.916;2022-10-22T09:05:48;998.0;;;17.2;50.0
53940;BME280;39850;43.324;21.916;2022-10-22T09:11:13;998.0;;;17.2;50.0
53940;BME280;39850;43.324;21.916;2022-10-22T09:50:43;997.0;;;20.3;43.0
53940;BME280;39850;43.324;21.916;2022-10-22T09:55:20;997.0;;;20.3;43.0
53940;BME280;39850;43.324;21.916;2022-10-22T09:59:59;997.0;;;20.6;42.0
53940;BME280;39850;43.324;21.916;2022-10-22T10:04:52;997.0;;;20.6;42.0
53940;BME280;39850;43.324;21.916;2022-10-22T10:09:35;997.0;;;20.8;42.0
53940;BME280;39850;43.324;21.916;2022-10-22T10:14:42;997.0;;;20.8;42.0
53940;BME280;39850;43.324;21.916;2022-10-22T10:20:14;997.0;;;20.8;42.0
53940;BME280;39850;43.324;21.916;2022-10-22T10:25:47;997.0;;;20.8;42.0
53940;BME280;39850;43.324;21.916;2022-10-22T10:30:25;997.0;;;20.8;42.0
53940;BME280;39850;43.324;21.916;2022-10-22T10:35:37;997.0;;;20.8;42.0
53940;BME280;39850;43.324;21.916;2022-10-22T11:11:02;996.0;;;21.7;36.0
53940;BME280;39850;43.324;21.916;2022-10-22T11:16:22;996.0;;;21.7;36.0
53940;BME280;39850;43.324;21.916;2022-10-22T11:21:39;996.0;;;21.7;36.0
53940;BME280;39850;43.324;21.916;2022-10-22T11:27:00;996.0;;;21.7;36.0
53940;BME280;39850;43.324;21.916;2022-10-22T11:31:43;996.0;;;21.7;36.0
53940;BME280;39850;43.324;21.916;2022-10-22T11:36:30;996.0;;;21.7;36.0
53940;BME280;39850;43.324;21.916;2022-10-22T11:41:23;996.0;;;21.7;36.0
53940;BME280;39850;43.324;21.916;2022-10-22T11:46:46;996.0;;;21.7;36.0
53940;BME280;39850;43.324;21.916;2022-10-22T11:51:43;996.0;;;21.7;36.0
53940;BME280;39850;43.324;21.916;2022-10-22T11:56:37;996.0;;;21.7;36.0
53940;BME280;39850;43.324;21.916;2022-10-22T12:30:26;995.0;;;21.7;36.0
53940;BME280;39850;43.324;21.916;2022-10-22T12:35:20;995.0;;;21.7;36.0
53940;BME280;39850;43.324;21.916;2022-10-22T12:40:01;995.0;;;21.7;36.0
53940;BME280;39850;43.324;21.916;2022-10-22T12:44:56;995.0;;;21.7;36.0
53940;BME280;39850;43.324;21.916;2022-10-22T12:49:43;995.0;;;21.7;36.0
53940;BME280;39850;43.324;21.916;2022-10-22T12:54:32;995.0;;;21.7;36.0
53940;BME280;39850;43.324;21.916;2022-10-22T12:59:24;994.0;;;21.7;36.0
53940;BME280;39850;43.324;21.916;2022-10-22T13:04:34;994.0;;;21.7;36.0
53940;BME280;39850;43.324;21.916;2022-10-22T13:09:23;994.0;;;21.7;36.0
53940;BME280;39850;43.324;21.916;2022-10-22T13:14:05;994.0;;;21.7;36.0
53940;BME280;39850;43.324;21.916;2022-10-22T13:47:30;995.0;;;20.8;38.0
53940;BME280;39850;43.324;21.916;2022-10-22T13:52:42;995.0;;;20.8;38.0
53940;BME280;39850;43.324;21.916;2022-10-22T13:57:19;995.0;;;20.8;38.0
53940;BME280;39850;43.324;21.916;2022-10-22T14:01:56;995.0;;;20.8;38.0
53940;BME280;39850;43.324;21.916;2022-10-22T14:06:34;995.0;;;20.8;38.0
53940;BME280;39850;43.324;21.916;2022-10-22T14:11:13;995.0;;;20.8;39.0
53940;BME280;39850;43.324;21.916;2022-10-22T14:15:52;995.0;;;20.8;39.0
53940;BME280;39850;43.324;21.916;2022-10-22T14:20:41;995.0;;;20.9;40.0
53940;BME280;39850;43.324;21.916;2022-10-22T14:25:25;995.0;;;20.9;40.0
53940;BME280;39850;43.324;21.916;2022-10-22T14:30:08;995.0;;;20.9;40.0
53940;BME280;39850;43.324;21.916;2022-10-22T14:34:49;995.0;;;20.9;40.0
53940;BME280;39850;43.324;21.916;2022-10-22T15:11:45;994.0;;;19.8;40.0
53940;BME280;39850;43.324;21.916;2022-10-22T15:16:21;994.0;;;19.8;40.0
53940;BME280;39850;43.324;21.916;2022-10-22T15:21:15;994.0;;;19.8;41.0
53940;BME280;39850;43.324;21.916;2022-10-22T15:25:55;994.0;;;19.8;41.0
53940;BME280;39850;43.324;21.916;2022-10-22T15:30:32;994.0;;;19.8;42.0
53940;BME280;39850;43.324;21.916;2022-10-22T15:35:08;994.0;;;19.8;42.0
53940;BME280;39850;43.324;21.916;2022-10-22T15:39:45;994.0;;;19.8;42.0
53940;BME280;39850;43.324;21.916;2022-10-22T15:44:30;994.0;;;19.8;42.0
53940;BME280;39850;43.324;21.916;2022-10-22T15:49:07;994.0;;;19.9;42.0
53940;BME280;39850;43.324;21.916;2022-10-22T15:53:55;994.0;;;19.9;42.0
53940;BME280;39850;43.324;21.916;2022-10-22T16:30:54;995.0;;;19.1;50.0
53940;BME280;39850;43.324;21.916;2022-10-22T16:35:33;995.0;;;19.1;50.0
53940;BME280;39850;43.324;21.916;2022-10-22T16:40:12;995.0;;;18.6;51.0
53940;BME280;39850;43.324;21.916;2022-10-22T16:44:49;995.0;;;18.6;51.0
53940;BME280;39850;43.324;21.916;2022-10-22T16:49:26;995.0;;;18.1;52.0
53940;BME280;39850;43.324;21.916;2022-10-22T16:54:04;995.0;;;18.1;52.0
53940;BME280;39850;43.324;21.916;2022-10-22T16:58:53;995.0;;;18.0;52.0
53940;BME280;39850;43.324;21.916;2022-10-22T17:03:31;995.0;;;18.0;52.0
53940;BME280;39850;43.324;21.916;2022-10-22T17:08:08;995.0;;;18.1;52.0
53940;BME280;39850;43.324;21.916;2022-10-22T17:12:47;995.0;;;18.1;52.0
53940;BME280;39850;43.324;21.916;2022-10-22T17:17:25;995.0;;;18.1;52.0
53940;BME280;39850;43.324;21.916;2022-10-22T17:59:16;995.0;;;16.7;59.0
53940;BME280;39850;43.324;21.916;2022-10-22T18:04:06;995.0;;;16.7;59.0
53940;BME280;39850;43.324;21.916;2022-10-22T18:08:45;995.0;;;16.4;59.0
53940;BME280;39850;43.324;21.916;2022-10-22T18:13:21;995.0;;;16.4;59.0
53940;BME280;39850;43.324;21.916;2022-10-22T18:17:58;995.0;;;16.4;59.0
53940;BME280;39850;43.324;21.916;2022-10-22T18:22:35;995.0;;;16.4;59.0
53940;BME280;39850;43.324;21.916;2022-10-22T18:27:12;995.0;;;16.4;59.0
53940;BME280;39850;43.324;21.916;2022-10-22T18:31:49;995.0;;;16.2;59.0
53940;BME280;39850;43.324;21.916;2022-10-22T18:36:27;995.0;;;16.2;59.0
53940;BME280;39850;43.324;21.916;2022-10-22T19:08:53;995.0;;;16.1;65.0
53940;BME280;39850;43.324;21.916;2022-10-22T19:13:30;995.0;;;16.1;65.0
53940;BME280;39850;43.324;21.916;2022-10-22T19:18:09;995.0;;;16.1;65.0
53940;BME280;39850;43.324;21.916;2022-10-22T19:22:46;996.0;;;15.7;65.0
53940;BME280;39850;43.324;21.916;2022-10-22T19:27:25;996.0;;;15.7;65.0
53940;BME280;39850;43.324;21.916;2022-10-22T19:32:02;996.0;;;15.7;65.0
53940;BME280;39850;43.324;21.916;2022-10-22T19:36:39;996.0;;;15.7;65.0
53940;BME280;39850;43.324;21.916;2022-10-22T19:41:28;996.0;;;15.3;65.0
53940;BME280;39850;43.324;21.916;2022-10-22T19:46:11;996.0;;;15.3;65.0
53940;BME280;39850;43.324;21.916;2022-10-22T20:41:42;996.0;;;14.9;68.0
53940;BME280;39850;43.324;21.916;2022-10-22T20:46:30;996.0;;;14.9;68.0
53940;BME280;39850;43.324;21.916;2022-10-22T20:51:07;996.0;;;14.9;68.0
53940;BME280;39850;43.324;21.916;2022-10-22T20:55:43;996.0;;;14.9;68.0
53940;BME280;39850;43.324;21.916;2022-10-22T21:00:21;996.0;;;14.9;68.0
53940;BME280;39850;43.324;21.916;2022-10-22T21:04:57;996.0;;;14.9;68.0
53940;BME280;39850;43.324;21.916;2022-10-22T21:51:21;996.0;;;14.4;68.0
53940;BME280;39850;43.324;21.916;2022-10-22T21:55:59;996.0;;;14.4;68.0
53940;BME280;39850;43.324;21.916;2022-10-22T22:00:36;996.0;;;14.4;68.0
53940;BME280;39850;43.324;21.916;2022-10-22T22:05:13;996.0;;;14.4;68.0
53940;BME280;39850;43.324;21.916;2022-10-22T22:09:51;996.0;;;14.4;68.0
53940;BME280;39850;43.324;21.916;2022-10-22T22:14:28;996.0;;;14.4;68.0
53940;BME280;39850;43.324;21.916;2022-10-22T22:19:11;996.0;;;14.4;69.0
53940;BME280;39850;43.324;21.916;2022-10-22T22:23:51;996.0;;;14.4;69.0
53940;BME280;39850;43.324;21.916;2022-10-22T22:28:34;996.0;;;14.4;69.0
53940;BME280;39850;43.324;21.916;2022-10-22T22:33:12;996.0;;;14.4;69.0
53940;BME280;39850;43.324;21.916;2022-10-22T22:37:50;996.0;;;14.4;69.0
53940;BME280;39850;43.324;21.916;2022-10-22T23:19:48;997.0;;;14.6;70.0
53940;BME280;39850;43.324;21.916;2022-10-22T23:24:29;997.0;;;14.6;70.0
53940;BME280;39850;43.324;21.916;2022-10-22T23:29:19;997.0;;;14.6;70.0
53940;BME280;39850;43.324;21.916;2022-10-22T23:33:57;997.0;;;14.6;70.0
53940;BME280;39850;43.324;21.916;2022-10-22T23:38:40;997.0;;;14.6;70.0
53940;BME280;39850;43.324;21.916;2022-10-22T23:43:16;997.0;;;14.6;70.0
53940;BME280;39850;43.324;21.916;2022-10-22T23:47:53;997.0;;;14.6;70.0
53940;BME280;39850;43.324;21.916;2022-10-22T23:52:29;997.0;;;14.6;71.0
53940;BME280;39850;43.324;21.916;2022-10-22T23:57:06;997.0;;;14.6;71.0
